Terminal Aerodrome Forecast
Issued by NWS

Home | Current Version | Previous Version | Text Only | Print | Product List | Glossary On
Versions: 1 2 3 4 5 6 7 8 9 10 11 12 13 14
000
FTUS45 KGGW 310520
TAFGDV
TAF
KGDV 310520Z 3106/0106 09010KT P6SM VCTS SCT060CB BKN140
      TEMPO 3107/3109 VRB25G35KT 2SM TSRAGS SCT025 BKN060CB
     FM311000 00000KT P6SM SCT110
     FM312100 23010KT P6SM FEW110=

USA.gov is the U.S. government's official web portal to all federal, state and local government web resources and services.